sensor_id;sensor_type;location;lat;lon;timestamp;pressure;altitude;pressure_sealevel;temperature;humidity
37200;BME280;23096;50.892;16.746;2024-02-04T00:00:23;99277.23;;;9.54;69.60
37200;BME280;23096;50.892;16.746;2024-02-04T00:02:49;99270.44;;;9.51;69.56
37200;BME280;23096;50.892;16.746;2024-02-04T00:05:15;99273.96;;;9.48;69.61
37200;BME280;23096;50.892;16.746;2024-02-04T00:07:40;99273.09;;;9.41;69.61
37200;BME280;23096;50.892;16.746;2024-02-04T00:10:06;99274.27;;;9.36;69.71
37200;BME280;23096;50.892;16.746;2024-02-04T00:12:32;99275.09;;;9.31;69.76
37200;BME280;23096;50.892;16.746;2024-02-04T00:14:58;99271.02;;;9.29;69.76
37200;BME280;23096;50.892;16.746;2024-02-04T00:17:23;99264.08;;;9.27;69.88
37200;BME280;23096;50.892;16.746;2024-02-04T00:19:56;99266.88;;;9.24;69.90
37200;BME280;23096;50.892;16.746;2024-02-04T00:22:22;99271.38;;;9.22;69.93
37200;BME280;23096;50.892;16.746;2024-02-04T00:24:47;99273.00;;;9.19;70.02
37200;BME280;23096;50.892;16.746;2024-02-04T00:27:13;99265.22;;;9.15;70.11
37200;BME280;23096;50.892;16.746;2024-02-04T00:29:38;99261.34;;;9.12;70.15
37200;BME280;23096;50.892;16.746;2024-02-04T00:32:04;99264.11;;;9.11;70.23
37200;BME280;23096;50.892;16.746;2024-02-04T00:34:30;99274.77;;;9.10;70.39
37200;BME280;23096;50.892;16.746;2024-02-04T00:36:55;99273.43;;;9.09;70.34
37200;BME280;23096;50.892;16.746;2024-02-04T00:39:21;99276.86;;;9.09;70.36
37200;BME280;23096;50.892;16.746;2024-02-04T00:41:46;99276.87;;;9.08;70.52
37200;BME280;23096;50.892;16.746;2024-02-04T00:44:12;99285.77;;;9.09;70.55
37200;BME280;23096;50.892;16.746;2024-02-04T00:46:37;99295.73;;;9.08;70.52
37200;BME280;23096;50.892;16.746;2024-02-04T00:49:03;99301.45;;;9.06;70.58
37200;BME280;23096;50.892;16.746;2024-02-04T00:51:29;99299.30;;;9.02;70.65
37200;BME280;23096;50.892;16.746;2024-02-04T00:53:54;99306.91;;;8.99;70.71
37200;BME280;23096;50.892;16.746;2024-02-04T00:56:20;99318.30;;;8.96;70.72
37200;BME280;23096;50.892;16.746;2024-02-04T00:58:46;99326.76;;;8.93;70.73
37200;BME280;23096;50.892;16.746;2024-02-04T01:01:11;99331.95;;;8.91;70.79
37200;BME280;23096;50.892;16.746;2024-02-04T01:03:37;99331.54;;;8.87;70.71
37200;BME280;23096;50.892;16.746;2024-02-04T01:06:03;99329.30;;;8.79;70.68
37200;BME280;23096;50.892;16.746;2024-02-04T01:08:29;99327.50;;;8.76;70.61
37200;BME280;23096;50.892;16.746;2024-02-04T01:10:54;99329.97;;;8.73;70.58
37200;BME280;23096;50.892;16.746;2024-02-04T01:13:20;99333.31;;;8.70;70.55
37200;BME280;23096;50.892;16.746;2024-02-04T01:15:45;99329.45;;;8.65;70.54
37200;BME280;23096;50.892;16.746;2024-02-04T01:18:11;99333.10;;;8.63;70.55
37200;BME280;23096;50.892;16.746;2024-02-04T01:20:37;99338.49;;;8.60;70.54
37200;BME280;23096;50.892;16.746;2024-02-04T01:23:02;99342.27;;;8.59;70.57
37200;BME280;23096;50.892;16.746;2024-02-04T01:25:28;99337.17;;;8.57;70.54
37200;BME280;23096;50.892;16.746;2024-02-04T01:27:53;99330.39;;;8.54;70.55
37200;BME280;23096;50.892;16.746;2024-02-04T01:30:20;99331.44;;;8.53;70.56
37200;BME280;23096;50.892;16.746;2024-02-04T01:32:45;99315.76;;;8.51;70.59
37200;BME280;23096;50.892;16.746;2024-02-04T01:35:11;99307.26;;;8.47;70.61
37200;BME280;23096;50.892;16.746;2024-02-04T01:37:37;99301.45;;;8.47;70.60
37200;BME280;23096;50.892;16.746;2024-02-04T01:40:03;99295.84;;;8.46;70.59
37200;BME280;23096;50.892;16.746;2024-02-04T01:42:32;99298.75;;;8.45;70.66
37200;BME280;23096;50.892;16.746;2024-02-04T01:44:57;99291.75;;;8.44;70.65
37200;BME280;23096;50.892;16.746;2024-02-04T01:47:23;99293.67;;;8.42;70.61
37200;BME280;23096;50.892;16.746;2024-02-04T01:49:49;99300.05;;;8.39;70.66
37200;BME280;23096;50.892;16.746;2024-02-04T01:52:15;99291.36;;;8.37;70.72
37200;BME280;23096;50.892;16.746;2024-02-04T01:54:43;99296.16;;;8.36;70.72
37200;BME280;23096;50.892;16.746;2024-02-04T01:57:10;99302.34;;;8.36;70.76
37200;BME280;23096;50.892;16.746;2024-02-04T01:59:38;99293.63;;;8.35;70.89
37200;BME280;23096;50.892;16.746;2024-02-04T02:02:05;99289.21;;;8.34;70.97
37200;BME280;23096;50.892;16.746;2024-02-04T02:04:31;99285.52;;;8.30;70.95
37200;BME280;23096;50.892;16.746;2024-02-04T02:06:56;99288.66;;;8.28;71.12
37200;BME280;23096;50.892;16.746;2024-02-04T02:09:24;99282.37;;;8.26;71.18
37200;BME280;23096;50.892;16.746;2024-02-04T02:14:28;99278.30;;;8.23;71.33
37200;BME280;23096;50.892;16.746;2024-02-04T02:16:57;99280.39;;;8.22;71.37
37200;BME280;23096;50.892;16.746;2024-02-04T02:19:44;99274.49;;;8.18;71.47
37200;BME280;23096;50.892;16.746;2024-02-04T02:22:28;99272.48;;;8.16;71.62
37200;BME280;23096;50.892;16.746;2024-02-04T02:24:56;99276.14;;;8.13;71.63
37200;BME280;23096;50.892;16.746;2024-02-04T02:27:22;99273.79;;;8.11;71.75
37200;BME280;23096;50.892;16.746;2024-02-04T02:29:48;99271.13;;;8.08;71.85
37200;BME280;23096;50.892;16.746;2024-02-04T02:32:14;99272.89;;;8.04;72.01
37200;BME280;23096;50.892;16.746;2024-02-04T02:34:39;99274.98;;;8.03;72.18
37200;BME280;23096;50.892;16.746;2024-02-04T02:40:31;99267.71;;;7.99;72.32
37200;BME280;23096;50.892;16.746;2024-02-04T02:43:01;99275.25;;;7.98;72.42
37200;BME280;23096;50.892;16.746;2024-02-04T02:45:28;99278.34;;;7.98;72.53
37200;BME280;23096;50.892;16.746;2024-02-04T02:47:54;99280.23;;;7.98;72.59
37200;BME280;23096;50.892;16.746;2024-02-04T02:50:20;99280.41;;;7.97;72.59
37200;BME280;23096;50.892;16.746;2024-02-04T02:52:46;99292.95;;;7.94;72.69
37200;BME280;23096;50.892;16.746;2024-02-04T02:55:12;99305.01;;;7.90;72.78
37200;BME280;23096;50.892;16.746;2024-02-04T02:57:38;99314.33;;;7.86;72.74
37200;BME280;23096;50.892;16.746;2024-02-04T03:00:05;99307.95;;;7.80;72.77
37200;BME280;23096;50.892;16.746;2024-02-04T03:02:32;99305.52;;;7.73;72.87
37200;BME280;23096;50.892;16.746;2024-02-04T03:04:58;99303.73;;;7.67;72.93
37200;BME280;23096;50.892;16.746;2024-02-04T03:07:23;99300.08;;;7.62;73.04
37200;BME280;23096;50.892;16.746;2024-02-04T03:09:49;99295.50;;;7.59;73.17
37200;BME280;23096;50.892;16.746;2024-02-04T03:12:14;99293.30;;;7.59;73.25
37200;BME280;23096;50.892;16.746;2024-02-04T03:14:40;99293.33;;;7.58;73.38
37200;BME280;23096;50.892;16.746;2024-02-04T03:17:06;99292.33;;;7.57;73.44
37200;BME280;23096;50.892;16.746;2024-02-04T03:19:31;99288.77;;;7.55;73.50
37200;BME280;23096;50.892;16.746;2024-02-04T03:21:57;99300.73;;;7.54;73.58
37200;BME280;23096;50.892;16.746;2024-02-04T03:24:22;99300.88;;;7.56;73.64
37200;BME280;23096;50.892;16.746;2024-02-04T03:26:48;99296.27;;;7.56;73.75
37200;BME280;23096;50.892;16.746;2024-02-04T03:29:14;99298.11;;;7.58;73.77
37200;BME280;23096;50.892;16.746;2024-02-04T03:31:39;99290.63;;;7.56;73.66
37200;BME280;23096;50.892;16.746;2024-02-04T03:34:05;99297.00;;;7.54;73.68
37200;BME280;23096;50.892;16.746;2024-02-04T03:36:31;99294.13;;;7.52;73.66
37200;BME280;23096;50.892;16.746;2024-02-04T03:38:57;99290.61;;;7.46;73.62
37200;BME280;23096;50.892;16.746;2024-02-04T03:41:23;99294.23;;;7.44;73.64
37200;BME280;23096;50.892;16.746;2024-02-04T03:43:48;99291.71;;;7.43;73.61
37200;BME280;23096;50.892;16.746;2024-02-04T03:46:15;99293.28;;;7.41;73.58
37200;BME280;23096;50.892;16.746;2024-02-04T03:48:42;99289.92;;;7.38;73.49
37200;BME280;23096;50.892;16.746;2024-02-04T03:51:08;99287.23;;;7.36;73.46
37200;BME280;23096;50.892;16.746;2024-02-04T03:53:33;99281.45;;;7.34;73.28
37200;BME280;23096;50.892;16.746;2024-02-04T03:55:59;99281.83;;;7.32;73.36
37200;BME280;23096;50.892;16.746;2024-02-04T03:58:25;99295.69;;;7.30;73.35
37200;BME280;23096;50.892;16.746;2024-02-04T04:00:57;99294.34;;;7.29;73.30
37200;BME280;23096;50.892;16.746;2024-02-04T04:03:23;99287.69;;;7.29;73.33
37200;BME280;23096;50.892;16.746;2024-02-04T04:05:49;99281.73;;;7.28;73.24
37200;BME280;23096;50.892;16.746;2024-02-04T04:08:14;99276.26;;;7.28;73.20
37200;BME280;23096;50.892;16.746;2024-02-04T04:10:40;99290.63;;;7.27;73.13
37200;BME280;23096;50.892;16.746;2024-02-04T04:13:05;99297.48;;;7.26;73.09
37200;BME280;23096;50.892;16.746;2024-02-04T04:15:31;99301.52;;;7.21;73.05
37200;BME280;23096;50.892;16.746;2024-02-04T04:17:57;99305.64;;;7.19;72.94
37200;BME280;23096;50.892;16.746;2024-02-04T04:20:22;99291.64;;;7.18;72.99
37200;BME280;23096;50.892;16.746;2024-02-04T04:22:48;99285.31;;;7.18;72.96
37200;BME280;23096;50.892;16.746;2024-02-04T04:25:14;99284.98;;;7.18;72.89
37200;BME280;23096;50.892;16.746;2024-02-04T04:27:39;99295.55;;;7.19;72.80
37200;BME280;23096;50.892;16.746;2024-02-04T04:30:08;99291.83;;;7.18;72.76
37200;BME280;23096;50.892;16.746;2024-02-04T04:32:36;99294.58;;;7.16;72.70
37200;BME280;23096;50.892;16.746;2024-02-04T04:35:02;99298.02;;;7.15;72.75
37200;BME280;23096;50.892;16.746;2024-02-04T04:37:28;99297.33;;;7.16;72.61
37200;BME280;23096;50.892;16.746;2024-02-04T04:39:54;99293.91;;;7.16;72.56
37200;BME280;23096;50.892;16.746;2024-02-04T04:42:20;99295.27;;;7.16;72.61
37200;BME280;23096;50.892;16.746;2024-02-04T04:44:45;99291.81;;;7.18;72.49
37200;BME280;23096;50.892;16.746;2024-02-04T04:47:12;99291.80;;;7.19;72.46
37200;BME280;23096;50.892;16.746;2024-02-04T04:49:37;99291.81;;;7.18;72.40
37200;BME280;23096;50.892;16.746;2024-02-04T04:52:03;99287.02;;;7.18;72.45
37200;BME280;23096;50.892;16.746;2024-02-04T04:54:28;99291.96;;;7.19;72.42
37200;BME280;23096;50.892;16.746;2024-02-04T04:56:54;99292.98;;;7.20;72.33
37200;BME280;23096;50.892;16.746;2024-02-04T04:59:19;99293.70;;;7.18;72.23
37200;BME280;23096;50.892;16.746;2024-02-04T05:01:48;99298.35;;;7.16;72.19
37200;BME280;23096;50.892;16.746;2024-02-04T05:04:16;99298.54;;;7.14;72.08
37200;BME280;23096;50.892;16.746;2024-02-04T05:06:42;99300.07;;;7.15;72.12
37200;BME280;23096;50.892;16.746;2024-02-04T05:09:07;99313.73;;;7.15;72.15
37200;BME280;23096;50.892;16.746;2024-02-04T05:11:34;99316.80;;;7.16;72.03
37200;BME280;23096;50.892;16.746;2024-02-04T05:13:59;99310.48;;;7.16;71.97
37200;BME280;23096;50.892;16.746;2024-02-04T05:16:25;99315.08;;;7.17;71.90
37200;BME280;23096;50.892;16.746;2024-02-04T05:18:50;99313.71;;;7.17;71.83
37200;BME280;23096;50.892;16.746;2024-02-04T05:21:16;99318.35;;;7.15;71.78
37200;BME280;23096;50.892;16.746;2024-02-04T05:23:42;99320.92;;;7.14;71.76
37200;BME280;23096;50.892;16.746;2024-02-04T05:26:07;99318.52;;;7.14;71.67
37200;BME280;23096;50.892;16.746;2024-02-04T05:28:33;99313.05;;;7.15;71.61
37200;BME280;23096;50.892;16.746;2024-02-04T05:30:59;99308.98;;;7.13;71.59
37200;BME280;23096;50.892;16.746;2024-02-04T05:33:26;99315.30;;;7.13;71.56
37200;BME280;23096;50.892;16.746;2024-02-04T05:35:51;99318.55;;;7.13;71.51
37200;BME280;23096;50.892;16.746;2024-02-04T05:38:17;99318.56;;;7.13;71.46
37200;BME280;23096;50.892;16.746;2024-02-04T05:40:43;99319.09;;;7.11;71.42
37200;BME280;23096;50.892;16.746;2024-02-04T05:43:08;99323.36;;;7.10;71.41
37200;BME280;23096;50.892;16.746;2024-02-04T05:45:38;99323.02;;;7.10;71.41
37200;BME280;23096;50.892;16.746;2024-02-04T05:48:10;99324.73;;;7.10;71.39
37200;BME280;23096;50.892;16.746;2024-02-04T05:50:35;99320.13;;;7.10;71.35
37200;BME280;23096;50.892;16.746;2024-02-04T05:53:02;99311.75;;;7.11;71.32
37200;BME280;23096;50.892;16.746;2024-02-04T05:55:28;99312.27;;;7.11;71.32
37200;BME280;23096;50.892;16.746;2024-02-04T05:57:54;99314.81;;;7.12;71.35
37200;BME280;23096;50.892;16.746;2024-02-04T06:00:20;99318.58;;;7.12;71.28
37200;BME280;23096;50.892;16.746;2024-02-04T06:02:45;99327.08;;;7.14;71.36
37200;BME280;23096;50.892;16.746;2024-02-04T06:05:13;99326.17;;;7.17;71.27
37200;BME280;23096;50.892;16.746;2024-02-04T06:07:39;99320.20;;;7.17;71.25
37200;BME280;23096;50.892;16.746;2024-02-04T06:10:09;99321.75;;;7.16;71.23
37200;BME280;23096;50.892;16.746;2024-02-04T06:12:35;99325.50;;;7.16;71.21
37200;BME280;23096;50.892;16.746;2024-02-04T06:15:01;99331.16;;;7.15;71.18
37200;BME280;23096;50.892;16.746;2024-02-04T06:17:26;99329.96;;;7.15;71.16
37200;BME280;23096;50.892;16.746;2024-02-04T06:19:52;99328.94;;;7.16;71.11
37200;BME280;23096;50.892;16.746;2024-02-04T06:22:17;99327.39;;;7.15;71.12
37200;BME280;23096;50.892;16.746;2024-02-04T06:24:43;99317.00;;;7.14;71.14
37200;BME280;23096;50.892;16.746;2024-02-04T06:27:08;99317.67;;;7.14;71.19
37200;BME280;23096;50.892;16.746;2024-02-04T06:29:35;99307.58;;;7.16;71.17
37200;BME280;23096;50.892;16.746;2024-02-04T06:32:02;99307.91;;;7.16;71.12
37200;BME280;23096;50.892;16.746;2024-02-04T06:34:28;99314.27;;;7.14;71.08
37200;BME280;23096;50.892;16.746;2024-02-04T06:36:54;99312.06;;;7.13;71.14
37200;BME280;23096;50.892;16.746;2024-02-04T06:39:19;99313.09;;;7.13;71.15
37200;BME280;23096;50.892;16.746;2024-02-04T06:41:45;99313.61;;;7.12;71.14
37200;BME280;23096;50.892;16.746;2024-02-04T06:44:13;99314.64;;;7.12;71.09
37200;BME280;23096;50.892;16.746;2024-02-04T06:46:39;99317.91;;;7.11;71.23
37200;BME280;23096;50.892;16.746;2024-02-04T06:49:04;99321.30;;;7.12;71.26
37200;BME280;23096;50.892;16.746;2024-02-04T06:51:30;99329.16;;;7.13;71.28
37200;BME280;23096;50.892;16.746;2024-02-04T06:53:55;99330.34;;;7.12;71.36
37200;BME280;23096;50.892;16.746;2024-02-04T06:56:21;99325.07;;;7.11;71.38
37200;BME280;23096;50.892;16.746;2024-02-04T06:58:46;99330.52;;;7.11;71.44
37200;BME280;23096;50.892;16.746;2024-02-04T07:01:12;99321.98;;;7.12;71.47
37200;BME280;23096;50.892;16.746;2024-02-04T07:03:37;99323.02;;;7.11;71.46
37200;BME280;23096;50.892;16.746;2024-02-04T07:06:04;99311.23;;;7.12;71.61
37200;BME280;23096;50.892;16.746;2024-02-04T07:08:29;99314.94;;;7.15;71.54
37200;BME280;23096;50.892;16.746;2024-02-04T07:10:55;99316.63;;;7.16;71.65
37200;BME280;23096;50.892;16.746;2024-02-04T07:13:21;99311.81;;;7.17;71.71
37200;BME280;23096;50.892;16.746;2024-02-04T07:15:47;99304.98;;;7.18;71.73
37200;BME280;23096;50.892;16.746;2024-02-04T07:18:12;99301.71;;;7.18;71.66
37200;BME280;23096;50.892;16.746;2024-02-04T07:20:38;99299.64;;;7.20;71.70
37200;BME280;23096;50.892;16.746;2024-02-04T07:23:04;99291.44;;;7.20;71.68
37200;BME280;23096;50.892;16.746;2024-02-04T07:25:30;99285.82;;;7.20;71.68
37200;BME280;23096;50.892;16.746;2024-02-04T07:27:55;99283.24;;;7.20;71.74
37200;BME280;23096;50.892;16.746;2024-02-04T07:30:22;99284.45;;;7.20;71.63
37200;BME280;23096;50.892;16.746;2024-02-04T07:32:47;99286.83;;;7.20;71.70
37200;BME280;23096;50.892;16.746;2024-02-04T07:35:13;99284.42;;;7.20;71.73
37200;BME280;23096;50.892;16.746;2024-02-04T07:37:38;99291.77;;;7.21;71.77
37200;BME280;23096;50.892;16.746;2024-02-04T07:40:05;99289.19;;;7.21;71.66
37200;BME280;23096;50.892;16.746;2024-02-04T07:42:33;99289.53;;;7.21;71.59
37200;BME280;23096;50.892;16.746;2024-02-04T07:44:59;99295.52;;;7.21;71.53
37200;BME280;23096;50.892;16.746;2024-02-04T07:47:24;99308.36;;;7.20;71.47
37200;BME280;23096;50.892;16.746;2024-02-04T07:49:51;99304.98;;;7.18;71.39
37200;BME280;23096;50.892;16.746;2024-02-04T07:52:16;99302.92;;;7.17;71.30
37200;BME280;23096;50.892;16.746;2024-02-04T07:54:42;99305.17;;;7.16;71.27
37200;BME280;23096;50.892;16.746;2024-02-04T07:57:12;99295.96;;;7.16;71.14
37200;BME280;23096;50.892;16.746;2024-02-04T07:59:37;99288.48;;;7.14;71.13
37200;BME280;23096;50.892;16.746;2024-02-04T08:02:03;99293.29;;;7.12;71.06
37200;BME280;23096;50.892;16.746;2024-02-04T08:04:29;99299.95;;;7.12;71.02
37200;BME280;23096;50.892;16.746;2024-02-04T08:06:54;99305.63;;;7.09;70.95
37200;BME280;23096;50.892;16.746;2024-02-04T08:09:20;99309.08;;;7.07;70.88
37200;BME280;23096;50.892;16.746;2024-02-04T08:11:46;99305.35;;;7.06;70.94
37200;BME280;23096;50.892;16.746;2024-02-04T08:14:12;99304.30;;;7.07;70.91
37200;BME280;23096;50.892;16.746;2024-02-04T08:16:39;99300.19;;;7.08;70.86
37200;BME280;23096;50.892;16.746;2024-02-04T08:19:06;99298.81;;;7.08;70.83
37200;BME280;23096;50.892;16.746;2024-02-04T08:21:32;99290.09;;;7.09;70.87
37200;BME280;23096;50.892;16.746;2024-02-04T08:23:58;99284.77;;;7.10;70.86
37200;BME280;23096;50.892;16.746;2024-02-04T08:26:24;99283.04;;;7.12;70.86
37200;BME280;23096;50.892;16.746;2024-02-04T08:28:50;99277.36;;;7.14;70.86
37200;BME280;23096;50.892;16.746;2024-02-04T08:31:16;99275.80;;;7.15;70.86
37200;BME280;23096;50.892;16.746;2024-02-04T08:33:42;99269.63;;;7.16;70.87
37200;BME280;23096;50.892;16.746;2024-02-04T08:36:07;99266.36;;;7.18;70.84
37200;BME280;23096;50.892;16.746;2024-02-04T08:38:36;99270.64;;;7.19;70.82
37200;BME280;23096;50.892;16.746;2024-02-04T08:41:02;99271.08;;;7.22;70.88
37200;BME280;23096;50.892;16.746;2024-02-04T08:43:28;99268.29;;;7.25;70.81
37200;BME280;23096;50.892;16.746;2024-02-04T08:45:53;99270.27;;;7.28;70.80
37200;BME280;23096;50.892;16.746;2024-02-04T08:48:19;99272.79;;;7.32;70.78
37200;BME280;23096;50.892;16.746;2024-02-04T08:50:44;99268.98;;;7.34;70.79
37200;BME280;23096;50.892;16.746;2024-02-04T08:53:12;99266.55;;;7.36;70.78
37200;BME280;23096;50.892;16.746;2024-02-04T08:55:38;99268.39;;;7.38;70.80
37200;BME280;23096;50.892;16.746;2024-02-04T08:58:05;99272.97;;;7.40;70.79
37200;BME280;23096;50.892;16.746;2024-02-04T09:00:31;99282.50;;;7.42;70.71
37200;BME280;23096;50.892;16.746;2024-02-04T09:02:56;99280.78;;;7.42;70.74
37200;BME280;23096;50.892;16.746;2024-02-04T09:05:22;99272.58;;;7.43;70.74
37200;BME280;23096;50.892;16.746;2024-02-04T09:07:48;99268.98;;;7.44;70.77
37200;BME280;23096;50.892;16.746;2024-02-04T09:10:13;99267.08;;;7.44;70.81
37200;BME280;23096;50.892;16.746;2024-02-04T09:12:39;99265.86;;;7.46;70.79
37200;BME280;23096;50.892;16.746;2024-02-04T09:15:05;99258.79;;;7.48;70.83
37200;BME280;23096;50.892;16.746;2024-02-04T09:17:31;99257.88;;;7.52;70.86
37200;BME280;23096;50.892;16.746;2024-02-04T09:19:59;99259.66;;;7.57;70.87
37200;BME280;23096;50.892;16.746;2024-02-04T09:22:25;99250.53;;;7.60;70.91
37200;BME280;23096;50.892;16.746;2024-02-04T09:24:50;99252.70;;;7.63;70.93
37200;BME280;23096;50.892;16.746;2024-02-04T09:27:16;99244.08;;;7.66;70.99
37200;BME280;23096;50.892;16.746;2024-02-04T09:29:41;99241.27;;;7.71;70.99
37200;BME280;23096;50.892;16.746;2024-02-04T09:32:07;99236.55;;;7.75;71.04
37200;BME280;23096;50.892;16.746;2024-02-04T09:34:33;99235.82;;;7.78;71.02
37200;BME280;23096;50.892;16.746;2024-02-04T09:36:58;99233.89;;;7.80;71.08
37200;BME280;23096;50.892;16.746;2024-02-04T09:39:24;99235.56;;;7.82;71.09
37200;BME280;23096;50.892;16.746;2024-02-04T09:41:50;99235.02;;;7.83;71.07
37200;BME280;23096;50.892;16.746;2024-02-04T09:44:16;99225.92;;;7.85;71.21
37200;BME280;23096;50.892;16.746;2024-02-04T09:46:42;99226.20;;;7.88;71.15
37200;BME280;23096;50.892;16.746;2024-02-04T09:49:09;99224.43;;;7.91;71.20
37200;BME280;23096;50.892;16.746;2024-02-04T09:51:34;99220.64;;;7.93;71.21
37200;BME280;23096;50.892;16.746;2024-02-04T09:54:03;99218.41;;;7.93;71.23
37200;BME280;23096;50.892;16.746;2024-02-04T09:56:31;99214.61;;;7.94;71.25
37200;BME280;23096;50.892;16.746;2024-02-04T09:58:57;99216.96;;;7.96;71.27
37200;BME280;23096;50.892;16.746;2024-02-04T10:01:23;99214.21;;;7.97;71.26
37200;BME280;23096;50.892;16.746;2024-02-04T10:03:49;99210.98;;;7.96;71.25
37200;BME280;23096;50.892;16.746;2024-02-04T10:06:14;99203.77;;;7.97;71.25
37200;BME280;23096;50.892;16.746;2024-02-04T10:08:40;99208.60;;;7.96;71.28
37200;BME280;23096;50.892;16.746;2024-02-04T10:11:05;99202.31;;;7.93;71.39
37200;BME280;23096;50.892;16.746;2024-02-04T10:13:45;99205.27;;;7.92;71.36
37200;BME280;23096;50.892;16.746;2024-02-04T10:16:15;99205.75;;;7.84;71.38
37200;BME280;23096;50.892;16.746;2024-02-04T10:18:42;99205.48;;;7.81;71.47
37200;BME280;23096;50.892;16.746;2024-02-04T10:21:21;99203.35;;;7.77;71.52
37200;BME280;23096;50.892;16.746;2024-02-04T10:23:48;99201.08;;;7.72;71.61
37200;BME280;23096;50.892;16.746;2024-02-04T10:26:15;99202.03;;;7.66;71.72
37200;BME280;23096;50.892;16.746;2024-02-04T10:28:40;99207.24;;;7.62;71.81
37200;BME280;23096;50.892;16.746;2024-02-04T10:31:10;99205.85;;;7.55;71.88
37200;BME280;23096;50.892;16.746;2024-02-04T10:33:36;99209.23;;;7.48;71.94
37200;BME280;23096;50.892;16.746;2024-02-04T10:36:03;99205.59;;;7.42;72.06
37200;BME280;23096;50.892;16.746;2024-02-04T10:38:29;99194.23;;;7.38;72.22
37200;BME280;23096;50.892;16.746;2024-02-04T10:40:55;99182.27;;;7.37;72.33
37200;BME280;23096;50.892;16.746;2024-02-04T10:43:24;99176.27;;;7.38;72.53
37200;BME280;23096;50.892;16.746;2024-02-04T10:45:56;99172.48;;;7.40;72.61
37200;BME280;23096;50.892;16.746;2024-02-04T10:48:24;99168.66;;;7.43;72.77
37200;BME280;23096;50.892;16.746;2024-02-04T10:50:55;99167.73;;;7.47;72.83
37200;BME280;23096;50.892;16.746;2024-02-04T10:53:22;99155.31;;;7.52;72.97
37200;BME280;23096;50.892;16.746;2024-02-04T10:55:49;99149.27;;;7.56;73.10
37200;BME280;23096;50.892;16.746;2024-02-04T10:58:15;99149.48;;;7.60;73.15
37200;BME280;23096;50.892;16.746;2024-02-04T11:00:43;99141.87;;;7.65;73.27
37200;BME280;23096;50.892;16.746;2024-02-04T11:03:08;99139.69;;;7.71;73.37
37200;BME280;23096;50.892;16.746;2024-02-04T11:05:36;99132.36;;;7.78;73.47
37200;BME280;23096;50.892;16.746;2024-02-04T11:08:02;99127.27;;;7.84;73.52
37200;BME280;23096;50.892;16.746;2024-02-04T11:10:29;99120.27;;;7.91;73.66
37200;BME280;23096;50.892;16.746;2024-02-04T11:12:58;99122.16;;;7.98;73.73
37200;BME280;23096;50.892;16.746;2024-02-04T11:15:29;99113.84;;;8.03;73.80
37200;BME280;23096;50.892;16.746;2024-02-04T11:18:07;99115.13;;;8.06;73.84
37200;BME280;23096;50.892;16.746;2024-02-04T11:20:59;99111.28;;;8.10;73.93
37200;BME280;23096;50.892;16.746;2024-02-04T11:23:43;99095.00;;;8.11;73.94
37200;BME280;23096;50.892;16.746;2024-02-04T11:26:15;99084.55;;;8.11;73.96
37200;BME280;23096;50.892;16.746;2024-02-04T11:28:42;99088.63;;;8.13;74.07
37200;BME280;23096;50.892;16.746;2024-02-04T11:31:14;99087.54;;;8.15;74.17
37200;BME280;23096;50.892;16.746;2024-02-04T11:33:41;99082.29;;;8.20;74.24
37200;BME280;23096;50.892;16.746;2024-02-04T11:36:07;99081.64;;;8.26;74.32
37200;BME280;23096;50.892;16.746;2024-02-04T11:38:37;99077.91;;;8.31;74.38
37200;BME280;23096;50.892;16.746;2024-02-04T11:41:03;99084.42;;;8.37;74.36
37200;BME280;23096;50.892;16.746;2024-02-04T11:43:31;99085.52;;;8.42;74.37
37200;BME280;23096;50.892;16.746;2024-02-04T11:45:57;99088.35;;;8.46;74.37
37200;BME280;23096;50.892;16.746;2024-02-04T11:48:32;99081.86;;;8.52;74.30
37200;BME280;23096;50.892;16.746;2024-02-04T11:50:59;99080.21;;;8.56;74.31
37200;BME280;23096;50.892;16.746;2024-02-04T11:53:29;99067.98;;;8.59;74.28
37200;BME280;23096;50.892;16.746;2024-02-04T11:56:00;99067.05;;;8.61;74.23
37200;BME280;23096;50.892;16.746;2024-02-04T12:01:13;99058.38;;;8.65;74.18
37200;BME280;23096;50.892;16.746;2024-02-04T12:03:39;99055.61;;;8.67;74.16
37200;BME280;23096;50.892;16.746;2024-02-04T12:06:05;99054.20;;;8.68;74.15
37200;BME280;23096;50.892;16.746;2024-02-04T12:08:34;99055.52;;;8.69;74.10
37200;BME280;23096;50.892;16.746;2024-02-04T12:11:01;99051.73;;;8.71;74.06
37200;BME280;23096;50.892;16.746;2024-02-04T12:13:30;99048.42;;;8.73;73.98
37200;BME280;23096;50.892;16.746;2024-02-04T12:15:57;99044.59;;;8.75;74.01
37200;BME280;23096;50.892;16.746;2024-02-04T12:18:23;99036.95;;;8.78;74.02
37200;BME280;23096;50.892;16.746;2024-02-04T12:20:48;99031.89;;;8.82;73.98
37200;BME280;23096;50.892;16.746;2024-02-04T12:23:15;99028.35;;;8.86;73.92
37200;BME280;23096;50.892;16.746;2024-02-04T12:25:40;99025.85;;;8.90;73.84
37200;BME280;23096;50.892;16.746;2024-02-04T12:28:06;99016.50;;;8.93;73.75
37200;BME280;23096;50.892;16.746;2024-02-04T12:30:32;99008.39;;;8.96;73.69
37200;BME280;23096;50.892;16.746;2024-02-04T12:33:02;99005.09;;;8.97;73.65
37200;BME280;23096;50.892;16.746;2024-02-04T12:35:29;98995.77;;;8.99;73.64
37200;BME280;23096;50.892;16.746;2024-02-04T12:37:57;98988.86;;;9.01;73.46
37200;BME280;23096;50.892;16.746;2024-02-04T12:40:29;98985.08;;;9.02;73.38
37200;BME280;23096;50.892;16.746;2024-02-04T12:42:57;98980.25;;;9.03;73.36
37200;BME280;23096;50.892;16.746;2024-02-04T12:45:24;98980.59;;;9.03;73.21
37200;BME280;23096;50.892;16.746;2024-02-04T12:47:55;98976.48;;;9.03;73.18
37200;BME280;23096;50.892;16.746;2024-02-04T12:50:21;98973.03;;;9.04;73.07
37200;BME280;23096;50.892;16.746;2024-02-04T12:52:48;98967.89;;;9.04;72.96
37200;BME280;23096;50.892;16.746;2024-02-04T12:55:24;98958.27;;;9.05;72.90
37200;BME280;23096;50.892;16.746;2024-02-04T12:57:50;98945.17;;;9.08;72.88
37200;BME280;23096;50.892;16.746;2024-02-04T13:00:20;98939.79;;;9.10;72.79
37200;BME280;23096;50.892;16.746;2024-02-04T13:02:49;98936.14;;;9.11;72.80
37200;BME280;23096;50.892;16.746;2024-02-04T13:05:22;98936.61;;;9.13;72.75